createdAt,value
2022-10-30T00:00:15.864Z,101235.31
2022-10-30T00:02:17.880Z,101243.13
2022-10-30T00:04:19.951Z,101237.94
2022-10-30T00:06:21.858Z,101241.41
2022-10-30T00:08:26.098Z,101250.94
2022-10-30T00:10:28.100Z,101249.22
2022-10-30T00:12:30.021Z,101264.84
2022-10-30T00:14:32.145Z,101256.09
2022-10-30T00:16:34.110Z,101268.25
2022-10-30T00:18:37.608Z,101278.66
2022-10-30T00:20:39.521Z,101289.06
2022-10-30T00:22:41.481Z,101281.25
2022-10-30T00:24:43.449Z,101279.53
2022-10-30T00:26:45.361Z,101279.56
2022-10-30T00:28:51.384Z,101275.19
2022-10-30T00:30:53.300Z,101271.72
2022-10-30T00:32:55.505Z,101270.91
2022-10-30T00:34:57.803Z,101257.84
2022-10-30T00:36:59.844Z,101249.19
2022-10-30T00:39:01.762Z,101250.09
2022-10-30T00:41:03.841Z,101257.84
2022-10-30T00:43:05.758Z,101250.03
2022-10-30T00:45:11.482Z,101240.50
2022-10-30T00:47:16.787Z,101230.97
2022-10-30T00:49:20.715Z,101226.63
2022-10-30T00:51:24.600Z,101221.44
2022-10-30T00:53:28.601Z,101220.56
2022-10-30T00:55:36.158Z,101227.50
2022-10-30T00:57:39.253Z,101224.03
2022-10-30T00:59:41.239Z,101223.16
2022-10-30T01:01:46.722Z,101219.69
2022-10-30T01:03:53.181Z,101217.09
2022-10-30T01:06:00.909Z,101212.75
2022-10-30T01:08:02.917Z,101217.09
2022-10-30T01:10:05.667Z,101211.88
2022-10-30T01:12:08.282Z,101208.41
2022-10-30T01:14:13.223Z,101204.06
2022-10-30T01:16:19.698Z,101219.66
2022-10-30T01:18:24.423Z,101232.66
2022-10-30T01:20:37.107Z,101219.69
2022-10-30T01:22:51.010Z,101204.06
2022-10-30T01:24:59.154Z,101194.50
2022-10-30T01:27:19.526Z,101192.78
2022-10-30T01:29:22.393Z,101218.78
2022-10-30T01:31:30.681Z,101217.94
2022-10-30T01:33:44.284Z,101210.13
2022-10-30T01:35:54.127Z,101203.19
2022-10-30T01:38:04.117Z,101195.38
2022-10-30T01:40:10.304Z,101198.88
2022-10-30T01:42:35.266Z,101204.94
2022-10-30T01:44:38.519Z,101206.66
2022-10-30T01:46:43.976Z,101200.59
2022-10-30T01:48:49.397Z,101211.84
2022-10-30T01:50:55.779Z,101205.78
2022-10-30T01:53:03.965Z,101195.38
2022-10-30T01:55:23.047Z,101197.97
2022-10-30T01:57:35.434Z,101197.97
2022-10-30T01:59:40.768Z,101203.19
2022-10-30T02:01:43.592Z,101211.00
2022-10-30T02:03:46.846Z,101220.50
2022-10-30T02:05:51.002Z,101219.63
2022-10-30T02:07:52.983Z,101216.16
2022-10-30T02:09:55.624Z,101213.56
2022-10-30T02:11:58.430Z,101209.19
2022-10-30T02:14:04.781Z,101210.06
2022-10-30T02:16:07.647Z,101200.53
2022-10-30T02:18:09.888Z,101192.75
2022-10-30T02:20:17.975Z,101190.13
2022-10-30T02:22:19.998Z,101184.06
2022-10-30T02:24:22.019Z,101179.78
2022-10-30T02:26:23.925Z,101194.50
2022-10-30T02:28:25.980Z,101203.13
2022-10-30T02:30:28.087Z,101210.06
2022-10-30T02:32:30.632Z,101196.19
2022-10-30T02:34:32.599Z,101198.81
2022-10-30T02:36:34.782Z,101189.31
2022-10-30T02:38:36.808Z,101198.81
2022-10-30T02:40:38.748Z,101191.00
2022-10-30T02:42:40.826Z,101198.84
2022-10-30T02:44:42.866Z,101194.50
2022-10-30T02:46:44.833Z,101192.75
2022-10-30T02:48:46.769Z,101196.19
2022-10-30T02:50:48.735Z,101192.75
2022-10-30T02:52:50.702Z,101183.19
2022-10-30T02:54:52.580Z,101176.25
2022-10-30T02:56:54.491Z,101177.13
2022-10-30T02:58:56.679Z,101181.44
2022-10-30T03:00:58.693Z,101176.25
2022-10-30T03:03:00.767Z,101175.41
2022-10-30T03:05:02.825Z,101177.13
2022-10-30T03:07:04.715Z,101187.47
2022-10-30T03:09:08.070Z,101186.63
2022-10-30T03:11:13.662Z,101189.22
2022-10-30T03:13:15.596Z,101175.34
2022-10-30T03:15:17.734Z,101177.97
2022-10-30T03:17:19.682Z,101173.63
2022-10-30T03:19:21.626Z,101178.78
2022-10-30T03:21:25.843Z,101176.22
2022-10-30T03:23:28.422Z,101180.56
2022-10-30T03:25:30.406Z,101184.03
2022-10-30T03:27:32.390Z,101184.03
2022-10-30T03:29:34.320Z,101191.81
2022-10-30T03:31:36.386Z,101193.50
2022-10-30T03:33:38.883Z,101190.91
2022-10-30T03:35:40.776Z,101197.88
2022-10-30T03:37:42.734Z,101192.66
2022-10-30T03:39:44.636Z,101193.56
2022-10-30T03:41:46.583Z,101203.06
2022-10-30T03:43:48.577Z,101205.63
2022-10-30T03:45:53.034Z,101202.19
2022-10-30T03:47:55.118Z,101217.75
2022-10-30T03:49:57.313Z,101213.44
2022-10-30T03:51:59.245Z,101212.53
2022-10-30T03:54:01.116Z,101204.69
2022-10-30T03:56:05.417Z,101193.44
2022-10-30T03:58:07.908Z,101186.59
2022-10-30T04:00:10.963Z,101185.69
2022-10-30T04:02:13.177Z,101184.81
2022-10-30T04:04:15.419Z,101177.84
2022-10-30T04:06:17.387Z,101176.94
2022-10-30T04:08:19.435Z,101188.25
2022-10-30T04:10:23.829Z,101189.94
2022-10-30T04:12:26.225Z,101192.53
2022-10-30T04:14:28.241Z,101191.66
2022-10-30T04:16:30.122Z,101192.53
2022-10-30T04:18:32.068Z,101194.22
2022-10-30T04:20:34.076Z,101191.66
2022-10-30T04:22:36.137Z,101189.06
2022-10-30T04:24:39.827Z,101185.59
2022-10-30T04:26:41.720Z,101181.28
2022-10-30T04:28:43.624Z,101190.78
2022-10-30T04:30:47.105Z,101196.84
2022-10-30T04:32:52.221Z,101189.03
2022-10-30T04:34:54.184Z,101190.78
2022-10-30T04:36:56.168Z,101193.41
2022-10-30T04:38:58.050Z,101189.06
2022-10-30T04:40:59.927Z,101183.84
2022-10-30T04:43:03.177Z,101175.22
2022-10-30T04:45:08.689Z,101169.16
2022-10-30T04:47:13.230Z,101164.81
2022-10-30T04:49:15.194Z,101169.16
2022-10-30T04:51:17.186Z,101170.88
2022-10-30T04:53:19.577Z,101162.22
2022-10-30T04:55:21.448Z,101161.34
2022-10-30T04:57:23.965Z,101159.63
2022-10-30T04:59:26.020Z,101159.63
2022-10-30T05:01:28.050Z,101164.78
2022-10-30T05:03:30.106Z,101167.38
2022-10-30T05:05:32.431Z,101162.19
2022-10-30T05:07:34.346Z,101158.72
2022-10-30T05:09:36.306Z,101165.59
2022-10-30T05:11:38.207Z,101167.34
2022-10-30T05:13:40.133Z,101168.25
2022-10-30T05:15:42.097Z,101172.56
2022-10-30T05:17:44.072Z,101163.91
2022-10-30T05:19:46.049Z,101149.19
2022-10-30T05:21:48.022Z,101150.94
2022-10-30T05:23:50.071Z,101157.81
2022-10-30T05:25:52.041Z,101164.78
2022-10-30T05:27:59.757Z,101169.06
2022-10-30T05:30:02.209Z,101174.31
2022-10-30T05:32:04.627Z,101163.00
2022-10-30T05:34:07.628Z,101170.78
2022-10-30T05:36:09.976Z,101175.09
2022-10-30T05:38:12.561Z,101161.22
2022-10-30T05:40:14.521Z,101169.00
2022-10-30T05:42:16.447Z,101174.19
2022-10-30T05:44:34.188Z,101169.00
2022-10-30T05:46:40.916Z,101175.88
2022-10-30T05:48:42.897Z,101174.94
2022-10-30T05:50:45.001Z,101183.63
2022-10-30T05:52:46.899Z,101185.38
2022-10-30T05:54:48.877Z,101181.06
2022-10-30T05:56:50.878Z,101178.41
2022-10-30T05:58:52.802Z,101168.94
2022-10-30T06:00:54.745Z,101175.88
2022-10-30T06:03:01.295Z,101184.56
2022-10-30T06:05:04.435Z,101180.25
2022-10-30T06:07:06.405Z,101179.34
2022-10-30T06:09:08.292Z,101187.97
2022-10-30T06:11:10.198Z,101194.03
2022-10-30T06:13:12.213Z,101195.75
2022-10-30T06:15:14.306Z,101187.09
2022-10-30T06:17:16.212Z,101190.59
2022-10-30T06:19:18.802Z,101192.34
2022-10-30T06:21:21.111Z,101184.53
2022-10-30T06:23:23.073Z,101181.94
2022-10-30T06:25:25.895Z,101181.94
2022-10-30T06:27:27.806Z,101181.91
2022-10-30T06:29:29.796Z,101182.84
2022-10-30T06:31:31.723Z,101179.38
2022-10-30T06:33:33.849Z,101180.22
2022-10-30T06:35:35.905Z,101173.28
2022-10-30T06:37:39.377Z,101175.00
2022-10-30T06:39:41.416Z,101177.59
2022-10-30T06:41:43.332Z,101188.91
2022-10-30T06:43:45.346Z,101187.19
2022-10-30T06:45:47.271Z,101191.56
2022-10-30T06:47:49.665Z,101190.69
2022-10-30T06:49:51.556Z,101190.69
2022-10-30T06:51:53.525Z,101193.28
2022-10-30T06:53:55.470Z,101195.03
2022-10-30T06:55:59.507Z,101191.63
2022-10-30T06:58:01.775Z,101202.84
2022-10-30T07:00:06.101Z,101192.47
2022-10-30T07:02:11.349Z,101196.81
2022-10-30T07:04:13.560Z,101205.50
2022-10-30T07:06:15.562Z,101208.97
2022-10-30T07:08:17.804Z,101211.53
2022-10-30T07:10:19.742Z,101207.19
2022-10-30T07:12:21.825Z,101217.59
2022-10-30T07:14:23.818Z,101209.78
2022-10-30T07:16:25.794Z,101209.81
2022-10-30T07:18:27.715Z,101214.13
2022-10-30T07:20:32.173Z,101229.69
2022-10-30T07:22:34.231Z,101228.84
2022-10-30T07:24:36.145Z,101234.03
2022-10-30T07:26:38.330Z,101227.09
2022-10-30T07:28:40.255Z,101218.41
2022-10-30T07:30:42.175Z,101208.00
2022-10-30T07:32:44.403Z,101204.53
2022-10-30T07:34:46.380Z,101192.44
2022-10-30T07:36:48.376Z,101180.31
2022-10-30T07:38:51.905Z,101187.22
2022-10-30T07:40:54.198Z,101185.56
2022-10-30T07:42:57.994Z,101193.28
2022-10-30T07:45:00.373Z,101189.84
2022-10-30T07:47:02.437Z,101193.28
2022-10-30T07:49:04.389Z,101195.03
2022-10-30T07:51:06.995Z,101198.47
2022-10-30T07:53:08.916Z,101207.09
2022-10-30T07:55:11.174Z,101211.34
2022-10-30T07:57:13.126Z,101207.97
2022-10-30T07:59:15.537Z,101218.34
2022-10-30T08:01:17.616Z,101220.97
2022-10-30T08:03:19.629Z,101218.38
2022-10-30T08:05:25.565Z,101213.16
2022-10-30T08:07:33.180Z,101207.13
2022-10-30T08:09:35.194Z,101207.09
2022-10-30T08:11:37.104Z,101198.44
2022-10-30T08:13:39.114Z,101205.34
2022-10-30T08:15:43.071Z,101204.44
2022-10-30T08:17:46.864Z,101205.28
2022-10-30T08:19:49.398Z,101209.66
2022-10-30T08:21:53.786Z,101220.06
2022-10-30T08:23:56.839Z,101215.69
2022-10-30T08:26:01.984Z,101211.34
2022-10-30T08:28:06.802Z,101210.47
2022-10-30T08:30:09.365Z,101209.63
2022-10-30T08:32:11.353Z,101206.16
2022-10-30T08:34:13.400Z,101210.47
2022-10-30T08:36:15.338Z,101215.75
2022-10-30T08:38:17.682Z,101218.31
2022-10-30T08:40:19.622Z,101224.31
2022-10-30T08:42:21.560Z,101218.25
2022-10-30T08:44:23.584Z,101215.59
2022-10-30T08:46:25.526Z,101210.47
2022-10-30T08:48:27.598Z,101204.41
2022-10-30T08:50:30.377Z,101207.88
2022-10-30T08:52:32.325Z,101211.28
2022-10-30T08:54:34.323Z,101214.81
2022-10-30T08:56:36.409Z,101213.88
2022-10-30T08:58:38.377Z,101196.56
2022-10-30T09:00:40.336Z,101193.13
2022-10-30T09:02:42.498Z,101199.09
2022-10-30T09:04:44.615Z,101219.06
2022-10-30T09:06:46.543Z,101222.56
2022-10-30T09:08:48.499Z,101202.63
2022-10-30T09:10:56.306Z,101181.00
2022-10-30T09:12:59.356Z,101162.75
2022-10-30T09:15:01.332Z,101160.13
2022-10-30T09:17:03.423Z,101165.31
2022-10-30T09:19:05.447Z,101171.41
2022-10-30T09:21:07.425Z,101157.50
2022-10-30T09:23:09.526Z,101142.00
2022-10-30T09:25:11.526Z,101160.16
2022-10-30T09:27:13.606Z,101183.53
2022-10-30T09:29:15.626Z,101207.75
2022-10-30T09:31:17.633Z,101231.97
2022-10-30T09:33:19.709Z,101261.38
2022-10-30T09:35:21.799Z,101276.06
2022-10-30T09:37:24.695Z,101272.59
2022-10-30T09:39:26.847Z,101273.38
2022-10-30T09:41:34.988Z,101288.16
2022-10-30T09:43:49.303Z,101286.38
2022-10-30T09:46:01.437Z,101282.06
2022-10-30T09:48:14.131Z,101231.78
2022-10-30T09:50:25.503Z,101211.91
2022-10-30T09:52:30.986Z,101218.91
2022-10-30T09:54:38.589Z,101236.97
2022-10-30T09:56:45.625Z,101232.66
2022-10-30T09:58:54.002Z,101223.97
2022-10-30T10:01:09.160Z,101227.44
2022-10-30T10:03:17.554Z,101229.16
2022-10-30T10:05:23.945Z,101229.09
2022-10-30T10:07:33.094Z,101238.56
2022-10-30T10:09:38.073Z,101238.56
2022-10-30T10:11:47.762Z,101243.69
2022-10-30T10:13:53.135Z,101238.47
2022-10-30T10:16:02.705Z,101243.69
2022-10-30T10:18:13.406Z,101241.94
2022-10-30T10:20:18.399Z,101244.63
2022-10-30T10:22:26.044Z,101240.31
2022-10-30T10:24:38.809Z,101250.59
2022-10-30T10:26:48.705Z,101249.72
2022-10-30T10:28:56.845Z,101241.94
2022-10-30T10:31:13.076Z,101261.03
2022-10-30T10:33:19.317Z,101252.31
2022-10-30T10:35:28.401Z,101254.88
2022-10-30T10:37:32.126Z,101243.63
2022-10-30T10:39:40.309Z,101249.75
2022-10-30T10:41:53.811Z,101248.88
2022-10-30T10:43:59.470Z,101245.41
2022-10-30T10:46:07.579Z,101236.84
2022-10-30T10:48:15.814Z,101241.16
2022-10-30T10:50:19.609Z,101251.53
2022-10-30T10:52:26.089Z,101249.84
2022-10-30T10:54:31.756Z,101249.88
2022-10-30T10:56:38.404Z,101254.13
2022-10-30T10:58:50.076Z,101231.66
2022-10-30T11:00:53.052Z,101246.34
2022-10-30T11:02:58.983Z,101249.81
2022-10-30T11:05:08.265Z,101251.47
2022-10-30T11:07:19.304Z,101252.31
2022-10-30T11:09:24.035Z,101242.03
2022-10-30T11:11:26.086Z,101243.78
2022-10-30T11:13:32.387Z,101247.34
2022-10-30T11:15:43.106Z,101259.34
2022-10-30T11:17:52.133Z,101260.31
2022-10-30T11:20:01.504Z,101251.66
2022-10-30T11:22:13.334Z,101243.03
2022-10-30T11:24:21.805Z,101249.72
2022-10-30T11:26:24.546Z,101262.75
2022-10-30T11:28:36.799Z,101245.50
2022-10-30T11:30:38.887Z,101248.97
2022-10-30T11:32:40.904Z,101244.72
2022-10-30T11:34:43.181Z,101235.25
2022-10-30T11:36:46.226Z,101232.66
2022-10-30T11:38:48.323Z,101243.78
2022-10-30T11:40:53.162Z,101248.19
2022-10-30T11:43:01.790Z,101228.31
2022-10-30T11:45:05.963Z,101226.59
2022-10-30T11:47:09.242Z,101237.00
2022-10-30T11:49:26.248Z,101243.03
2022-10-30T11:51:33.417Z,101229.28
2022-10-30T11:53:41.001Z,101237.16
2022-10-30T11:55:47.796Z,101234.53
2022-10-30T11:57:53.133Z,101237.09
2022-10-30T12:00:00.612Z,101231.97
2022-10-30T12:02:08.928Z,101237.16
2022-10-30T12:04:16.069Z,101229.34
2022-10-30T12:06:25.043Z,101241.53
2022-10-30T12:08:27.064Z,101231.22
2022-10-30T12:10:30.739Z,101233.81
2022-10-30T12:12:38.860Z,101221.66
2022-10-30T12:14:40.985Z,101226.88
2022-10-30T12:16:47.907Z,101235.44
2022-10-30T12:18:55.230Z,101226.88
2022-10-30T12:20:58.410Z,101225.19
2022-10-30T12:23:10.953Z,101215.69
2022-10-30T12:25:24.648Z,101225.19
2022-10-30T12:27:27.170Z,101220.94
2022-10-30T12:32:09.630Z,101239.16
2022-10-30T12:34:27.540Z,101220.13
2022-10-30T12:36:36.383Z,101227.00
2022-10-30T12:38:46.618Z,101223.50
2022-10-30T12:40:54.796Z,101226.19
2022-10-30T12:43:05.324Z,101221.03
2022-10-30T12:45:10.864Z,101221.97
2022-10-30T12:47:19.092Z,101234.97
2022-10-30T12:49:28.887Z,101221.09
2022-10-30T12:51:39.325Z,101220.28
2022-10-30T12:53:47.539Z,101221.97
2022-10-30T12:55:57.646Z,101214.25
2022-10-30T12:58:02.421Z,101214.22
2022-10-30T13:00:11.045Z,101216.03
2022-10-30T13:02:17.212Z,101211.63
2022-10-30T13:04:24.827Z,101211.63
2022-10-30T13:06:32.073Z,101216.78
2022-10-30T13:08:40.072Z,101224.59
2022-10-30T13:10:46.865Z,101200.38
2022-10-30T13:12:54.762Z,101206.50
2022-10-30T13:15:03.257Z,101215.16
2022-10-30T13:17:11.904Z,101212.56
2022-10-30T13:19:14.266Z,101230.66
2022-10-30T13:21:25.889Z,101216.91
2022-10-30T13:23:40.846Z,101216.78
2022-10-30T13:25:50.458Z,101226.28
2022-10-30T13:28:00.723Z,101226.34
2022-10-30T13:30:06.766Z,101234.09
2022-10-30T13:32:12.381Z,101222.88
2022-10-30T13:34:20.597Z,101229.81
2022-10-30T13:36:33.370Z,101208.97
2022-10-30T13:38:44.349Z,101215.91
2022-10-30T13:40:51.403Z,101212.44
2022-10-30T13:43:07.525Z,101202.91
2022-10-30T13:45:15.771Z,101205.50
2022-10-30T13:47:22.341Z,101201.19
2022-10-30T13:49:36.707Z,101197.78
2022-10-30T13:51:44.385Z,101190.91
2022-10-30T13:53:53.703Z,101196.16
2022-10-30T13:55:56.975Z,101205.69
2022-10-30T13:58:07.311Z,101193.56
2022-10-30T14:00:13.382Z,101184.13
2022-10-30T14:02:19.065Z,101191.03
2022-10-30T14:04:29.988Z,101193.69
2022-10-30T14:06:39.438Z,101200.59
2022-10-30T14:08:47.847Z,101194.56
2022-10-30T14:10:57.593Z,101187.63
2022-10-30T14:13:03.473Z,101186.75
2022-10-30T14:15:06.537Z,101179.81
2022-10-30T14:17:15.248Z,101178.09
2022-10-30T14:19:18.756Z,101179.81
2022-10-30T14:21:27.229Z,101188.50
2022-10-30T14:23:35.408Z,101199.75
2022-10-30T14:25:37.655Z,101187.63
2022-10-30T14:27:40.027Z,101197.19
2022-10-30T14:29:47.494Z,101208.41
2022-10-30T14:31:49.645Z,101204.94
2022-10-30T14:33:54.085Z,101195.41
2022-10-30T14:36:07.128Z,101186.75
2022-10-30T14:38:10.198Z,101229.19
2022-10-30T14:40:18.893Z,101220.56
2022-10-30T14:42:25.134Z,101213.63
2022-10-30T14:44:33.274Z,101232.66
2022-10-30T14:46:44.947Z,101222.25
2022-10-30T14:49:01.264Z,101217.03
2022-10-30T14:51:17.004Z,101225.69
2022-10-30T14:53:29.809Z,101229.13
2022-10-30T14:55:36.124Z,101217.03
2022-10-30T14:57:45.509Z,101220.47
2022-10-30T14:59:47.627Z,101227.47
2022-10-30T15:01:53.509Z,101224.81
2022-10-30T15:03:59.270Z,101231.78
2022-10-30T15:06:13.886Z,101236.16
2022-10-30T15:08:20.367Z,101233.47
2022-10-30T15:10:24.393Z,101238.66
2022-10-30T15:12:41.809Z,101249.91
2022-10-30T15:14:54.969Z,101243.00
2022-10-30T15:16:57.281Z,101240.41
2022-10-30T15:19:02.406Z,101247.34
2022-10-30T15:21:08.618Z,101252.53
2022-10-30T15:23:20.848Z,101249.06
2022-10-30T15:25:25.328Z,101249.06
2022-10-30T15:27:28.288Z,101252.50
2022-10-30T15:29:35.925Z,101247.28
2022-10-30T15:31:38.148Z,101258.59
2022-10-30T15:33:41.462Z,101246.47
2022-10-30T15:35:47.832Z,101249.94
2022-10-30T15:37:56.117Z,101256.00
2022-10-30T15:40:04.310Z,101263.75
2022-10-30T15:42:06.383Z,101261.06
2022-10-30T15:44:08.847Z,101256.81
2022-10-30T15:46:11.772Z,101256.81
2022-10-30T15:48:22.652Z,101274.97
2022-10-30T15:50:25.016Z,101276.72
2022-10-30T15:52:29.313Z,101275.78
2022-10-30T15:54:33.355Z,101271.47
2022-10-30T15:57:06.786Z,101280.91
2022-10-30T15:59:06.746Z,101283.44
2022-10-30T16:01:25.552Z,101291.22
2022-10-30T16:03:29.210Z,101291.22
2022-10-30T16:05:32.409Z,101287.72
2022-10-30T16:07:48.408Z,101274.69
2022-10-30T16:09:56.749Z,101283.38
2022-10-30T16:12:00.704Z,101292.03
2022-10-30T16:14:09.346Z,101284.22
2022-10-30T16:16:17.683Z,101289.47
2022-10-30T16:18:22.436Z,101293.72
2022-10-30T16:20:25.006Z,101292.88
2022-10-30T16:22:34.038Z,101293.59
2022-10-30T16:24:36.490Z,101295.44
2022-10-30T16:26:39.248Z,101287.56
2022-10-30T16:28:41.584Z,101296.28
2022-10-30T16:30:44.020Z,101299.69
2022-10-30T16:32:53.327Z,101303.13
2022-10-30T16:34:58.147Z,101297.00
2022-10-30T16:37:01.274Z,101294.34
2022-10-30T16:39:04.230Z,101300.34
2022-10-30T16:41:07.965Z,101297.84
2022-10-30T16:43:26.182Z,101308.16
2022-10-30T16:45:32.955Z,101308.09
2022-10-30T16:47:37.614Z,101304.69
2022-10-30T16:49:48.633Z,101309.00
2022-10-30T16:51:58.882Z,101316.75
2022-10-30T16:54:01.095Z,101305.50
2022-10-30T16:56:03.980Z,101315.88
2022-10-30T16:58:06.260Z,101315.06
2022-10-30T17:00:24.252Z,101317.59
2022-10-30T17:02:32.476Z,101329.78
2022-10-30T17:04:35.703Z,101332.28
2022-10-30T17:06:41.386Z,101329.69
2022-10-30T17:08:44.195Z,101333.13
2022-10-30T17:10:52.464Z,101329.66
2022-10-30T17:13:17.523Z,101334.94
2022-10-30T17:15:21.352Z,101328.00
2022-10-30T17:17:29.884Z,101339.19
2022-10-30T17:19:32.958Z,101345.25
2022-10-30T17:21:41.058Z,101342.66
2022-10-30T17:23:47.039Z,101344.28
2022-10-30T17:25:49.318Z,101346.97
2022-10-30T17:27:51.799Z,101352.06
2022-10-30T17:29:54.588Z,101356.47
2022-10-30T17:31:58.996Z,101351.19
2022-10-30T17:34:05.676Z,101359.88
2022-10-30T17:36:09.235Z,101369.47
2022-10-30T17:38:11.302Z,101365.91
2022-10-30T17:40:14.237Z,101378.81
2022-10-30T17:42:16.703Z,101374.47
2022-10-30T17:44:23.153Z,101385.72
2022-10-30T17:46:25.579Z,101389.25
2022-10-30T17:48:29.546Z,101384.06
2022-10-30T17:50:31.613Z,101387.44
2022-10-30T17:52:34.467Z,101395.22
2022-10-30T17:54:37.086Z,101394.44
2022-10-30T17:56:39.446Z,101395.31
2022-10-30T17:58:41.506Z,101397.03
2022-10-30T18:00:43.705Z,101397.81
2022-10-30T18:02:45.932Z,101396.81
2022-10-30T18:04:49.008Z,101397.75
2022-10-30T18:06:51.210Z,101398.50
2022-10-30T18:08:53.742Z,101404.56
2022-10-30T18:10:55.752Z,101399.50
2022-10-30T18:13:01.589Z,101412.50
2022-10-30T18:15:10.244Z,101408.22
2022-10-30T18:17:12.535Z,101415.09
2022-10-30T18:19:14.754Z,101413.34
2022-10-30T18:21:19.506Z,101420.28
2022-10-30T18:23:51.990Z,101418.66
2022-10-30T18:25:46.633Z,101423.00
2022-10-30T18:27:48.764Z,101425.59
2022-10-30T18:29:50.883Z,101436.75
2022-10-30T18:31:53.240Z,101440.28
2022-10-30T18:33:55.262Z,101441.16
2022-10-30T18:35:59.383Z,101435.09
2022-10-30T18:38:02.196Z,101437.69
2022-10-30T18:40:05.004Z,101440.91
2022-10-30T18:42:09.902Z,101437.44
2022-10-30T18:44:15.862Z,101432.38
2022-10-30T18:46:18.004Z,101442.00
2022-10-30T18:48:20.125Z,101434.19
2022-10-30T18:50:24.488Z,101438.44
2022-10-30T18:52:26.651Z,101442.78
2022-10-30T18:54:28.794Z,101444.47
2022-10-30T18:56:33.012Z,101434.09
2022-10-30T18:58:35.205Z,101433.25
2022-10-30T19:01:06.048Z,101447.91
2022-10-30T19:03:02.610Z,101444.41
2022-10-30T19:05:10.915Z,101445.34
2022-10-30T19:07:12.902Z,101453.13
2022-10-30T19:09:15.008Z,101453.88
2022-10-30T19:11:24.082Z,101445.22
2022-10-30T19:13:28.190Z,101448.69
2022-10-30T19:15:34.616Z,101447.78
2022-10-30T19:17:36.688Z,101451.22
2022-10-30T19:19:38.617Z,101452.97
2022-10-30T19:21:40.653Z,101464.94
2022-10-30T19:23:43.067Z,101458.03
2022-10-30T19:25:47.837Z,101452.84
2022-10-30T19:27:50.330Z,101462.38
2022-10-30T19:29:52.422Z,101460.72
2022-10-30T19:31:54.885Z,101459.84
2022-10-30T19:33:57.337Z,101458.06
2022-10-30T19:36:02.202Z,101459.81
2022-10-30T19:38:08.135Z,101461.63
2022-10-30T19:40:16.840Z,101471.97
2022-10-30T19:42:19.040Z,101461.53
2022-10-30T19:44:21.209Z,101464.06
2022-10-30T19:46:23.409Z,101468.28
2022-10-30T19:48:55.607Z,101468.25
2022-10-30T19:50:48.071Z,101475.16
2022-10-30T19:52:51.625Z,101474.31
2022-10-30T19:54:53.817Z,101468.28
2022-10-30T19:56:55.967Z,101471.69
2022-10-30T19:58:58.164Z,101472.59
2022-10-30T20:01:00.347Z,101478.63
2022-10-30T20:03:04.215Z,101473.53
2022-10-30T20:05:06.634Z,101480.34
2022-10-30T20:07:11.528Z,101480.22
2022-10-30T20:09:13.758Z,101480.25
2022-10-30T20:11:16.065Z,101478.38
2022-10-30T20:13:18.930Z,101474.13
2022-10-30T20:15:23.422Z,101474.97
2022-10-30T20:17:25.545Z,101473.25
2022-10-30T20:19:30.186Z,101483.53
2022-10-30T20:21:32.309Z,101482.63
2022-10-30T20:23:34.470Z,101480.03
2022-10-30T20:25:37.973Z,101472.25
2022-10-30T20:27:41.570Z,101479.09
2022-10-30T20:29:44.320Z,101467.91
2022-10-30T20:31:46.405Z,101472.16
2022-10-30T20:33:48.744Z,101475.59
2022-10-30T20:35:51.094Z,101473.88
2022-10-30T20:37:59.268Z,101479.88
2022-10-30T20:40:01.690Z,101474.69
2022-10-30T20:42:04.083Z,101470.34
2022-10-30T20:44:06.612Z,101475.63
2022-10-30T20:46:10.703Z,101477.25
2022-10-30T20:48:13.186Z,101477.31
2022-10-30T20:50:19.095Z,101476.47
2022-10-30T20:52:21.263Z,101480.72
2022-10-30T20:54:23.563Z,101489.41
2022-10-30T20:56:25.984Z,101480.78
2022-10-30T20:58:28.394Z,101472.00
2022-10-30T21:00:30.774Z,101476.44
2022-10-30T21:02:33.053Z,101473.84
2022-10-30T21:04:35.288Z,101481.50
2022-10-30T21:06:37.535Z,101485.91
2022-10-30T21:08:39.750Z,101477.31
2022-10-30T21:10:42.509Z,101486.78
2022-10-30T21:12:44.613Z,101486.75
2022-10-30T21:14:46.987Z,101488.59
2022-10-30T21:16:49.549Z,101500.63
2022-10-30T21:18:52.843Z,101498.06
2022-10-30T21:20:54.994Z,101494.47
2022-10-30T21:22:57.273Z,101497.97
2022-10-30T21:24:59.404Z,101498.03
2022-10-30T21:27:01.495Z,101497.16
2022-10-30T21:29:05.364Z,101499.66
2022-10-30T21:31:11.740Z,101504.09
2022-10-30T21:33:13.992Z,101509.28
2022-10-30T21:35:16.193Z,101506.75
2022-10-30T21:37:18.486Z,101512.72
2022-10-30T21:39:21.817Z,101505.78
2022-10-30T21:41:25.723Z,101512.75
2022-10-30T21:43:27.918Z,101510.09
2022-10-30T21:45:30.040Z,101516.28
2022-10-30T21:47:32.088Z,101518.91
2022-10-30T21:49:34.145Z,101522.34
2022-10-30T21:51:36.246Z,101527.47
2022-10-30T21:53:39.384Z,101521.53
2022-10-30T21:55:41.485Z,101523.25
2022-10-30T21:57:43.692Z,101521.50
2022-10-30T21:59:45.826Z,101516.31
2022-10-30T22:01:48.055Z,101512.72
2022-10-30T22:03:50.374Z,101517.75
2022-10-30T22:05:52.664Z,101518.72
2022-10-30T22:07:54.861Z,101522.19
2022-10-30T22:09:57.167Z,101524.63
2022-10-30T22:11:59.272Z,101517.78
2022-10-30T22:14:03.264Z,101522.97
2022-10-30T22:16:08.246Z,101522.97
2022-10-30T22:18:13.403Z,101515.22
2022-10-30T22:20:15.522Z,101516.91
2022-10-30T22:22:17.974Z,101513.44
2022-10-30T22:24:20.089Z,101520.28
2022-10-30T22:26:23.914Z,101503.75
2022-10-30T22:28:27.418Z,101507.34
2022-10-30T22:30:29.445Z,101518.47
2022-10-30T22:32:31.634Z,101512.50
2022-10-30T22:34:36.631Z,101516.78
2022-10-30T22:36:38.729Z,101512.53
2022-10-30T22:38:41.420Z,101517.59
2022-10-30T22:40:43.567Z,101518.50
2022-10-30T22:42:45.590Z,101519.34
2022-10-30T22:44:47.753Z,101518.50
2022-10-30T22:46:50.385Z,101523.66
2022-10-30T22:48:52.372Z,101518.56
2022-10-30T22:50:58.603Z,101519.44
2022-10-30T22:53:00.702Z,101523.66
2022-10-30T22:55:02.979Z,101514.94
2022-10-30T22:57:05.016Z,101518.41
2022-10-30T22:59:10.422Z,101519.25
2022-10-30T23:01:16.011Z,101523.56
2022-10-30T23:03:18.260Z,101517.44
2022-10-30T23:05:20.345Z,101518.28
2022-10-30T23:07:22.432Z,101520.84
2022-10-30T23:09:24.555Z,101517.25
2022-10-30T23:11:28.237Z,101518.88
2022-10-30T23:13:31.489Z,101519.13
2022-10-30T23:15:33.642Z,101516.59
2022-10-30T23:17:35.671Z,101521.56
2022-10-30T23:19:38.159Z,101508.75
2022-10-30T23:21:40.174Z,101514.78
2022-10-30T23:23:43.884Z,101510.47
2022-10-30T23:25:45.881Z,101507.94
2022-10-30T23:27:48.040Z,101509.75
2022-10-30T23:29:50.184Z,101504.44
2022-10-30T23:31:52.272Z,101508.81
2022-10-30T23:33:56.699Z,101505.38
2022-10-30T23:36:01.352Z,101507.19
2022-10-30T23:38:04.062Z,101513.22
2022-10-30T23:40:07.082Z,101508.94
2022-10-30T23:42:09.230Z,101512.38
2022-10-30T23:44:13.514Z,101506.31